• Join FlightAware (Why Join?)
  • Login
  • US Flag 
Rudolph Flight #1: Arrived! 
06:20AM EST


 

Airport Tracker/Info


-or-


 

Live Flight TrackerFlight Track Log ✈ SWA1969 ✈ 22-Apr-2013 ✈ KMCI - KMDW

Flight Track Log - Related Links

Times and Time Zones

All times are in EDT time to prevent confusion due to time zone crossing. See the SWA1969 flight status page for this flight to view local times or setup timezone preferences in your user account.

Time Position Orientation Groundspeed Altitude Reporting Facility
EDT Latitude Longitude Course Direction KTS MPH feet Rate Location/Type
11:12AM 39.2500 -94.7333 180° South 181 208 3,400  Level Kansas City TRACON
11:13AM 39.2317 -94.7456 207° Southwest 192 221 4,600 2,820 Climbing Kansas City Center
11:14AM 39.2197 -94.6456 99° East 275 316 7,900 2,940 Climbing Kansas City Center
11:15AM 39.2756 -94.5775 43° Northeast 299 344 10,700 2,520 Climbing Kansas City Center
11:16AM 39.3597 -94.4825 41° Northeast 361 415 13,200 2,400 Climbing Kansas City Center
11:17AM 39.4317 -94.3947 43° Northeast 376 433 15,700 2,580 Climbing Kansas City Center
11:18AM 39.5192 -94.2872 43° Northeast 388 447 18,500 2,160 Climbing Kansas City Center
11:19AM 39.5989 -94.1925 42° Northeast 404 465 20,600 2,100 Climbing Kansas City Center
11:20AM 39.7064 -94.0603 43° Northeast 418 481 23,300 2,100 Climbing Kansas City Center
11:21AM 39.7886 -93.9575 44° Northeast 427 491 25,000 1,620 Climbing Kansas City Center
11:22AM 39.8825 -93.8281 47° Northeast 444 511 26,700 1,620 Climbing Kansas City Center
11:23AM 39.9708 -93.7111 45° Northeast 452 520 28,400 1,680 Climbing Kansas City Center
11:24AM 40.0114 -93.5569 71° East 456 525 30,300 1,200 Climbing Kansas City Center
11:25AM 40.0425 -93.3975 76° East 457 526 31,000 420 Climbing Kansas City Center
11:26AM 40.0725 -93.2389 76° East 456 525 31,200 840 Climbing Kansas City Center
11:27AM 40.1111 -93.0453 75° East 463 533 32,700 840 Climbing Kansas City Center
11:28AM 40.1392 -92.8953 76° East 466 536 33,000 120 Climbing Kansas City Center
11:29AM 40.1736 -92.7122 76° East 465 535 33,000  Level Kansas City Center
11:31AM 40.2033 -92.5553 76° East 464 534 33,000  Level Kansas City Center
11:32AM 40.2386 -92.3781 75° East 448 516 33,000  Level Kansas City Center
11:33AM 40.2667 -92.2156 77° East 462 532 33,000  Level Kansas City Center
11:34AM 40.2953 -92.0550 77° East 459 528 33,000  Level Kansas City Center
11:35AM 40.3236 -91.8936 77° East 459 528 33,000  Level Kansas City Center
11:36AM 40.3578 -91.7028 77° East 454 522 33,000  Level Kansas City Center
11:37AM 40.3858 -91.5414 77° East 456 525 33,000  Level Kansas City Center
11:38AM 40.4128 -91.3797 78° East 457 526 33,000  Level Kansas City Center
11:38AM 40.4267 -91.3164 74° East 456 525 33,000  Level Chicago Center
11:39AM 40.4519 -91.1603 78° East 456 525 33,000  Level Chicago Center
11:40AM 40.4864 -90.9661 77° East 456 525 33,000  Level Chicago Center
11:41AM 40.5147 -90.8053 77° East 452 520 33,000  Level Chicago Center
11:42AM 40.5411 -90.6436 78° East 452 520 33,000 -300 Level Chicago Center
11:43AM 40.5669 -90.4853 78° East 446 513 32,400 -1,140 Descending Chicago Center
11:44AM 40.5933 -90.3328 77° East 434 499 30,700 -1,860 Descending Chicago Center
11:45AM 40.6183 -90.1714 78° East 415 478 28,700 -1,800 Descending Chicago Center
11:46AM 40.6419 -90.0306 77° East 400 460 27,000 -1,740 Descending Chicago Center
11:47AM 40.6644 -89.8925 78° East 390 449 25,200 -1,800 Descending Chicago Center
11:48AM 40.6897 -89.7572 76° East 383 441 23,400 -1,920 Descending Chicago Center
11:49AM 40.7556 -89.6186 58° Northeast 373 429 21,300 -1,860 Descending Chicago Center
11:50AM 40.8058 -89.5011 60° Northeast 361 415 19,600 -1,680 Descending Chicago Center
11:51AM 40.8539 -89.3894 60° Northeast 352 405 17,900 -2,220 Descending Chicago Center
11:53AM 40.9033 -89.2747 60° Northeast 359 413 15,100 -2,160 Descending Chicago Center
11:54AM 40.9694 -89.1700 50° Northeast 367 422 13,500 -1,560 Descending Chicago Center
11:55AM 41.0331 -89.0789 47° Northeast 356 410 11,900 -1,740 Descending Chicago Center
11:56AM 41.1086 -88.9672 48° Northeast 342 394 10,000 -960 Descending Chicago Center
11:57AM 41.1678 -88.8797 48° Northeast 325 374 10,000  Level Chicago Center
11:58AM 41.2258 -88.7950 48° Northeast 314 361 10,000 -480 Level Chicago Center
11:59AM 41.2806 -88.7131 48° Northeast 303 349 9,100 -1,140 Descending Chicago Center
12:00PM 41.3342 -88.6336 48° Northeast 293 337 7,700 -1,380 Descending Chicago Center
12:01PM 41.3878 -88.5539 48° Northeast 289 333 6,300 -840 Descending Chicago Center
12:02PM 41.4386 -88.4531 56° Northeast 275 316 6,000 -180 Descending Chicago Center
12:03PM 41.4800 -88.3697 56° Northeast 270 311 6,000 -540 Level Chicago Center
12:04PM 41.5006 -88.2758 74° East 263 303 5,000 -540 Descending Chicago Center
12:05PM 41.5189 -88.1789 76° East 267 307 5,000  Level Chicago Center
12:06PM 41.5383 -88.0819 75° East 267 307 5,000 -420 Level Chicago Center
12:07PM 41.5572 -87.9853 75° East 266 306 4,200 -900 Descending Chicago Center
12:08PM 41.5753 -87.8897 76° East 266 306 3,200 -600 Descending Chicago Center
12:09PM 41.6044 -87.8022 66° East 267 307 3,000 -240 Descending Chicago Center
12:09PM 41.6333 -87.7500 53° Northeast 277 319 2,900 -480 Descending Chicago TRACON
12:10PM 41.7000 -87.7000 29° Northeast 264 304 2,300 -540 Descending Chicago TRACON
12:11PM 41.7500 -87.6667 26° Northeast 221 254 1,900 -420 Descending Chicago TRACON
12:13PM 41.8000 -87.6833 346° North 148 170 1,500 -540 Descending Chicago TRACON
12:14PM 41.8000 -87.7333 270° West 137 158 900 -600 Descending Chicago TRACON